Chelmsley Wood, United Kingdom
Current Conditions -  °F | °C
As of 9:20 PM on Thursday 18 Dec 2014 (Local Time) from EGBB Reporting Station
Broken Clouds Broken Clouds  
Wind Chill: 13°   Ceiling: 2100
Heat Index: 13°   Visibility: 6mi
Dew Point: 10°   Wind: 12mph
Humidity: 82%   Direction: 220°SW
Pressure: 29.71"   Gusts: NA
Location:  52.48°N, 1.74°W
Report Text: EGBB 182120Z 22010KT 180V250 9999 BKN021 13/10 Q1006
Loading
Personal Weather Stations






























Interactive Weather Map New forecast layout! Learn more

10-Day Weather Forecast

Advertisements
Track Severe Weather on mobile